Aérodrome :
LOGIN :

S'inscrire | Disclaimer

   EN    FR    IT 

 










Légende :    VFR   VFR Marginal   IFR   IFR Intensif   IFR Très Intensif
Visi : 
Plafond : 
>= 8 km
>= 3000ft
5 à 8 km
1000 à 3000 ft
1500m à 5 km
500 à 1000 ft
800 à 1500m
200 à 500 ft
< 800m
< 200 ft
Symboles :   Orages  Brouillard  Fortes neiges  Fortes précipitations  Vent > 20 kt
SIGMETs :   Divers  Orages  Givrage  Turbulence  Onde Orograph.  Cendres Volcan.







- Altitude de l'aérodrome : 83 ft
- Code IATA : LHR
- Voir les cartes d'approche


EGLL - London Heathrow

DERNIER METAR :
  • 221220Z AUTO 20014KT 170V230 9999 BKN024 BKN030 OVC037 14/10 Q0998

METARs EXPIRÉS :
  • 221150Z AUTO 21017KT 9999 BKN024 OVC039 14/10 Q0999 NOSIG
  • 221120Z AUTO 20015KT 9999 BKN024 OVC035 14/09 Q0999 NOSIG
  • 221050Z AUTO 21016G26KT 9999 BKN024 15/09 Q1000
  • 221020Z AUTO 21017KT 9999 SCT028 SCT042 15/09 Q1000 NOSIG
  • 220950Z AUTO 20018KT 9999 FEW026 SCT032 BKN039 15/10 Q1000 NOSIG

TAF TAF EGLL
Valide du 22 à 12h jusqu'au 23 à 18h UTC


221056Z 2212/2318 23015G25KT 9999 SCT025
BECMG 2212/2214 19020G32KT
TEMPO 2220/2305 6000 RA
PROB30
TEMPO 2221/2303 19025G43KT 4000 +SHRA BKN012
BECMG 2304/2307 22020G30KT
TEMPO 2307/2312 22012KT
Pas de NOTAMs connus pour ce terrain.
2 SIGMETs publiés pour la FIR London (EGTT) :
 
Turbulence forte
EGTT SIGMET 05 VALID 221000/221400 EGRR
EGTT LONDON FIR SEV TURB FCST WI N4850 W00800 - N5100 W00800 - N5220 W00530 - N5345 W00530 - N5439 W00223 - N4932 W00435 - N4850 W00800 SFC/FL060 MOV ENE 15KT INTSF=
Onde orographique forte
EGTT SIGMET 04 VALID 221000/221400 EGRR
EGTT LONDON FIR SEV MTW FCST WI N5500 E00045 - N5412 E00110 - N5047 W00255 - N5045 W00430 - N5500 W00415 - N5500 W00100 - N5500 E00045 FL020/180 STNR INTSF=



MET'MAP, la Météo Aéronautique d'un coup d'oeil ! - Copyright ORBIFLY Décembre 2007 - Disclaimer

ORBIFLY MET'MAP TEAM :

Programmation & Développement : Alexandra Zaïnal
Conception & Développement : Baudouin d'Aumeries
Co-Programmation & Développement : Marc-Olivier Méhu
Soutien technique & logistique : Manuel Goepfert

Contact : metmap@orbifly.com




SOURCES & CREDITS :

   NOAA